ТосноСпас

Карта отелей и гостиниц, располагающихся рядом с аэропортом ТосноСпас :

ТосноСпас Ленинградская область 59° 31' 45.2388" N, 30° 51' 8.3988" E
Код аэродрома ИКАО
ULSX
Код аэродрома RU
УЛСЬ
Координаты
N59.52923° E030.85233°
Превышение над уровнем моря
41
Основная полоса
06/24
Курс магнитный
058,2/238,2
Длина основной ВПП
25
Ширина основной ВПП
20
Покрытие основной ВПП
Твёрдое (бетон)
Освещение ВПП
По запросу
Тип: 
Вертодром
Класс аэродрома: 
Принадлежность: 
МЧС
Статус: 
Действующий
Сайт: 
E-mail аэродрома: 
Страна: 
Россия
Регион: 
Ленинградская область
Город: 
Дополнительная информация: 
Оператор: СЗРЦ МЧС России. Сектор взлета и посадки: Ам=050°...270°. Взлет/посадка вне зоны влияния земли.

Найти трансфер

С помощью этой формы Вы можете найти трансфер из аэропорта ТосноСпас в город, аэропорт или вокзал:

Карта места

Javascript is required to view this map.

Погода в аэропортах:

Авиационная погода в Толмачево

Регион: 
Погода METAR: 
UNNT 171830Z 31005MPS 9999 -SHRA SCT010 BKN051CB 10/10 Q0997 R25/290155 R34/////// NOSIG RMK QFE738/0984
Время наблюдения
2021-09-17T18:30:00Z
Температура C
10.0
Точка росы
10.0
Направление ветра
310
Скорость ветра (узлы)
10
Метео видимость
6.21
Явления погоды
-SHRA
Условия полета
VFR
Аэропорт подробнее: 

Авиационная погода в Закаталы

Регион: 
Погода METAR: 
UBBY 171900Z 12006KT 9999 VCTS SCT030CB OVC070 18/18 Q1019 R33/////// NOSIG RMK MT OBSC
Время наблюдения
2021-09-17T19:00:00Z
Температура C
18.0
Точка росы
18.0
Направление ветра
120
Скорость ветра (узлы)
6
Метео видимость
6.21
Явления погоды
VCTS
Условия полета
VFR

Авиационная погода в Челябинске

Регион: 
Погода METAR: 
USCC 171830Z 28003MPS 9999 -SHRA BKN026CB 07/07 Q1007 R27/290050 TEMPO 2000 SHRA RMK QFE735
Время наблюдения
2021-09-17T18:30:00Z
Температура C
7.0
Точка росы
7.0
Направление ветра
280
Скорость ветра (узлы)
6
Метео видимость
6.21
Явления погоды
-SHRA
Условия полета
MVFR
Аэропорт подробнее: 

Авиационная погода в Махачкале

Регион: 
Погода METAR: 
URML 171830Z 06002MPS 9999 -RA OVC024 18/15 Q1016 R14/290060 NOSIG RMK QFE762/1016
Время наблюдения
2021-09-17T18:30:00Z
Температура C
18.0
Точка росы
15.0
Направление ветра
60
Скорость ветра (узлы)
4
Метео видимость
6.21
Явления погоды
-RA
Условия полета
MVFR
Аэропорт подробнее: